sensor_id;sensor_type;location;lat;lon;timestamp;temperature;humidity
5560;DHT22;2803;47.916;8.074;2023-05-07T00:01:28;14.90;99.90
5560;DHT22;2803;47.916;8.074;2023-05-07T00:03:55;15.00;99.90
5560;DHT22;2803;47.916;8.074;2023-05-07T00:06:23;15.00;99.90
5560;DHT22;2803;47.916;8.074;2023-05-07T00:08:51;15.00;99.90
5560;DHT22;2803;47.916;8.074;2023-05-07T00:11:18;15.00;99.90
5560;DHT22;2803;47.916;8.074;2023-05-07T00:13:45;15.10;99.90
5560;DHT22;2803;47.916;8.074;2023-05-07T00:16:11;15.10;99.90
5560;DHT22;2803;47.916;8.074;2023-05-07T00:18:38;15.00;99.90
5560;DHT22;2803;47.916;8.074;2023-05-07T00:21:04;14.90;99.90
5560;DHT22;2803;47.916;8.074;2023-05-07T00:23:32;15.00;99.90
5560;DHT22;2803;47.916;8.074;2023-05-07T00:25:59;14.90;99.90
5560;DHT22;2803;47.916;8.074;2023-05-07T00:28:25;14.50;99.90
5560;DHT22;2803;47.916;8.074;2023-05-07T00:30:52;14.60;99.90
5560;DHT22;2803;47.916;8.074;2023-05-07T00:33:19;14.70;99.90
5560;DHT22;2803;47.916;8.074;2023-05-07T00:35:46;14.40;99.90
5560;DHT22;2803;47.916;8.074;2023-05-07T00:38:13;14.30;99.90
5560;DHT22;2803;47.916;8.074;2023-05-07T00:40:41;14.20;99.90
5560;DHT22;2803;47.916;8.074;2023-05-07T00:43:07;13.50;99.90
5560;DHT22;2803;47.916;8.074;2023-05-07T00:45:34;13.10;99.90
5560;DHT22;2803;47.916;8.074;2023-05-07T00:48:01;13.00;99.90
5560;DHT22;2803;47.916;8.074;2023-05-07T00:50:28;13.50;99.90
5560;DHT22;2803;47.916;8.074;2023-05-07T00:52:56;14.00;99.90
5560;DHT22;2803;47.916;8.074;2023-05-07T00:55:23;14.30;99.90
5560;DHT22;2803;47.916;8.074;2023-05-07T00:57:51;14.40;99.90
5560;DHT22;2803;47.916;8.074;2023-05-07T01:00:18;14.60;99.90
5560;DHT22;2803;47.916;8.074;2023-05-07T01:02:45;14.60;99.90
5560;DHT22;2803;47.916;8.074;2023-05-07T01:05:13;14.20;99.90
5560;DHT22;2803;47.916;8.074;2023-05-07T01:07:41;14.30;99.90
5560;DHT22;2803;47.916;8.074;2023-05-07T01:10:09;14.60;99.90
5560;DHT22;2803;47.916;8.074;2023-05-07T01:12:37;14.80;99.90
5560;DHT22;2803;47.916;8.074;2023-05-07T01:15:08;14.60;99.90
5560;DHT22;2803;47.916;8.074;2023-05-07T01:17:36;14.70;99.90
5560;DHT22;2803;47.916;8.074;2023-05-07T01:20:04;14.80;99.90
5560;DHT22;2803;47.916;8.074;2023-05-07T01:22:34;14.90;99.90
5560;DHT22;2803;47.916;8.074;2023-05-07T01:25:02;14.90;99.90
5560;DHT22;2803;47.916;8.074;2023-05-07T01:27:29;14.90;99.90
5560;DHT22;2803;47.916;8.074;2023-05-07T01:29:56;14.80;99.90
5560;DHT22;2803;47.916;8.074;2023-05-07T01:32:26;14.90;99.90
5560;DHT22;2803;47.916;8.074;2023-05-07T01:34:54;14.80;99.90
5560;DHT22;2803;47.916;8.074;2023-05-07T01:37:22;14.80;99.90
5560;DHT22;2803;47.916;8.074;2023-05-07T01:39:50;14.80;99.90
5560;DHT22;2803;47.916;8.074;2023-05-07T01:42:17;14.60;99.90
5560;DHT22;2803;47.916;8.074;2023-05-07T01:44:44;14.20;99.90
5560;DHT22;2803;47.916;8.074;2023-05-07T01:47:11;13.90;99.90
5560;DHT22;2803;47.916;8.074;2023-05-07T01:49:39;13.80;99.90
5560;DHT22;2803;47.916;8.074;2023-05-07T01:52:06;14.20;99.90
5560;DHT22;2803;47.916;8.074;2023-05-07T01:54:32;14.50;99.90
5560;DHT22;2803;47.916;8.074;2023-05-07T01:57:00;14.70;99.90
5560;DHT22;2803;47.916;8.074;2023-05-07T01:59:27;14.70;99.90
5560;DHT22;2803;47.916;8.074;2023-05-07T02:01:53;14.80;99.90
5560;DHT22;2803;47.916;8.074;2023-05-07T02:04:20;14.80;99.90
5560;DHT22;2803;47.916;8.074;2023-05-07T02:06:47;14.80;99.90
5560;DHT22;2803;47.916;8.074;2023-05-07T02:09:13;14.80;99.90
5560;DHT22;2803;47.916;8.074;2023-05-07T02:11:41;14.80;99.90
5560;DHT22;2803;47.916;8.074;2023-05-07T02:14:09;14.70;99.90
5560;DHT22;2803;47.916;8.074;2023-05-07T02:16:36;14.80;99.90
5560;DHT22;2803;47.916;8.074;2023-05-07T02:19:02;14.80;99.90
5560;DHT22;2803;47.916;8.074;2023-05-07T02:21:29;14.70;99.90
5560;DHT22;2803;47.916;8.074;2023-05-07T02:23:55;14.70;99.90
5560;DHT22;2803;47.916;8.074;2023-05-07T02:26:22;14.60;99.90
5560;DHT22;2803;47.916;8.074;2023-05-07T02:28:49;14.40;99.90
5560;DHT22;2803;47.916;8.074;2023-05-07T02:31:17;14.40;99.90
5560;DHT22;2803;47.916;8.074;2023-05-07T02:33:44;14.40;99.90
5560;DHT22;2803;47.916;8.074;2023-05-07T02:36:11;14.40;99.90
5560;DHT22;2803;47.916;8.074;2023-05-07T02:38:38;14.30;99.90
5560;DHT22;2803;47.916;8.074;2023-05-07T02:41:05;14.30;99.90
5560;DHT22;2803;47.916;8.074;2023-05-07T02:43:31;14.10;99.90
5560;DHT22;2803;47.916;8.074;2023-05-07T02:46:02;13.70;99.90
5560;DHT22;2803;47.916;8.074;2023-05-07T02:48:30;13.80;99.90
5560;DHT22;2803;47.916;8.074;2023-05-07T02:50:57;14.10;99.90
5560;DHT22;2803;47.916;8.074;2023-05-07T02:53:23;14.10;99.90
5560;DHT22;2803;47.916;8.074;2023-05-07T02:55:51;14.20;99.90
5560;DHT22;2803;47.916;8.074;2023-05-07T02:58:18;14.20;99.90
5560;DHT22;2803;47.916;8.074;2023-05-07T03:00:45;14.30;99.90
5560;DHT22;2803;47.916;8.074;2023-05-07T03:03:11;14.20;99.90
5560;DHT22;2803;47.916;8.074;2023-05-07T03:05:39;14.10;99.90
5560;DHT22;2803;47.916;8.074;2023-05-07T03:08:07;14.00;99.90
5560;DHT22;2803;47.916;8.074;2023-05-07T03:10:33;14.00;99.90
5560;DHT22;2803;47.916;8.074;2023-05-07T03:13:00;13.90;99.90
5560;DHT22;2803;47.916;8.074;2023-05-07T03:15:27;13.80;99.90
5560;DHT22;2803;47.916;8.074;2023-05-07T03:17:54;14.00;99.90
5560;DHT22;2803;47.916;8.074;2023-05-07T03:20:20;14.00;99.90
5560;DHT22;2803;47.916;8.074;2023-05-07T03:22:48;14.10;99.90
5560;DHT22;2803;47.916;8.074;2023-05-07T03:25:15;14.10;99.90
5560;DHT22;2803;47.916;8.074;2023-05-07T03:27:42;14.00;99.90
5560;DHT22;2803;47.916;8.074;2023-05-07T03:30:09;13.80;99.90
5560;DHT22;2803;47.916;8.074;2023-05-07T03:32:36;13.80;99.90
5560;DHT22;2803;47.916;8.074;2023-05-07T03:35:03;14.00;99.90
5560;DHT22;2803;47.916;8.074;2023-05-07T03:37:30;14.00;99.90
5560;DHT22;2803;47.916;8.074;2023-05-07T03:39:58;13.70;99.90
5560;DHT22;2803;47.916;8.074;2023-05-07T03:42:24;13.00;99.90
5560;DHT22;2803;47.916;8.074;2023-05-07T03:44:51;13.40;99.90
5560;DHT22;2803;47.916;8.074;2023-05-07T03:47:18;13.60;99.90
5560;DHT22;2803;47.916;8.074;2023-05-07T03:49:44;13.70;99.90
5560;DHT22;2803;47.916;8.074;2023-05-07T03:52:11;13.90;99.90
5560;DHT22;2803;47.916;8.074;2023-05-07T03:54:37;13.90;99.90
5560;DHT22;2803;47.916;8.074;2023-05-07T03:57:05;14.00;99.90
5560;DHT22;2803;47.916;8.074;2023-05-07T03:59:32;13.90;99.90
5560;DHT22;2803;47.916;8.074;2023-05-07T04:01:58;13.80;99.90
5560;DHT22;2803;47.916;8.074;2023-05-07T04:04:25;13.70;99.90
5560;DHT22;2803;47.916;8.074;2023-05-07T04:06:52;13.30;99.90
5560;DHT22;2803;47.916;8.074;2023-05-07T04:09:18;13.30;99.90
5560;DHT22;2803;47.916;8.074;2023-05-07T04:11:45;13.50;99.90
5560;DHT22;2803;47.916;8.074;2023-05-07T04:14:13;13.50;99.90
5560;DHT22;2803;47.916;8.074;2023-05-07T04:16:39;13.50;99.90
5560;DHT22;2803;47.916;8.074;2023-05-07T04:19:06;13.60;99.90
5560;DHT22;2803;47.916;8.074;2023-05-07T04:21:33;13.60;99.90
5560;DHT22;2803;47.916;8.074;2023-05-07T04:23:59;13.70;99.90
5560;DHT22;2803;47.916;8.074;2023-05-07T04:26:26;13.60;99.90
5560;DHT22;2803;47.916;8.074;2023-05-07T04:28:53;13.70;99.90
5560;DHT22;2803;47.916;8.074;2023-05-07T04:31:21;13.40;99.90
5560;DHT22;2803;47.916;8.074;2023-05-07T04:33:48;13.30;99.90
5560;DHT22;2803;47.916;8.074;2023-05-07T04:36:16;13.30;99.90
5560;DHT22;2803;47.916;8.074;2023-05-07T04:38:43;13.30;99.90
5560;DHT22;2803;47.916;8.074;2023-05-07T04:41:12;13.20;99.90
5560;DHT22;2803;47.916;8.074;2023-05-07T04:43:39;13.40;99.90
5560;DHT22;2803;47.916;8.074;2023-05-07T04:46:07;13.50;99.90
5560;DHT22;2803;47.916;8.074;2023-05-07T04:48:34;13.60;99.90
5560;DHT22;2803;47.916;8.074;2023-05-07T04:51:01;13.70;99.90
5560;DHT22;2803;47.916;8.074;2023-05-07T04:53:28;13.70;99.90
5560;DHT22;2803;47.916;8.074;2023-05-07T04:55:55;13.80;99.90
5560;DHT22;2803;47.916;8.074;2023-05-07T04:58:23;13.70;99.90
5560;DHT22;2803;47.916;8.074;2023-05-07T05:00:49;13.80;99.90
5560;DHT22;2803;47.916;8.074;2023-05-07T05:03:17;13.60;99.90
5560;DHT22;2803;47.916;8.074;2023-05-07T05:05:45;13.20;99.90
5560;DHT22;2803;47.916;8.074;2023-05-07T05:08:11;13.40;99.90
5560;DHT22;2803;47.916;8.074;2023-05-07T05:10:38;13.60;99.90
5560;DHT22;2803;47.916;8.074;2023-05-07T05:13:04;13.80;99.90
5560;DHT22;2803;47.916;8.074;2023-05-07T05:15:31;14.00;99.90
5560;DHT22;2803;47.916;8.074;2023-05-07T05:17:57;13.50;99.90
5560;DHT22;2803;47.916;8.074;2023-05-07T05:20:24;13.70;99.90
5560;DHT22;2803;47.916;8.074;2023-05-07T05:22:52;13.90;99.90
5560;DHT22;2803;47.916;8.074;2023-05-07T05:25:19;14.20;99.90
5560;DHT22;2803;47.916;8.074;2023-05-07T05:27:45;14.40;99.90
5560;DHT22;2803;47.916;8.074;2023-05-07T05:30:12;14.70;99.90
5560;DHT22;2803;47.916;8.074;2023-05-07T05:32:39;14.80;99.90
5560;DHT22;2803;47.916;8.074;2023-05-07T05:35:06;14.50;99.90
5560;DHT22;2803;47.916;8.074;2023-05-07T05:37:33;14.60;99.90
5560;DHT22;2803;47.916;8.074;2023-05-07T05:40:01;14.80;99.90
5560;DHT22;2803;47.916;8.074;2023-05-07T05:42:28;14.90;99.90
5560;DHT22;2803;47.916;8.074;2023-05-07T05:44:55;14.90;99.90
5560;DHT22;2803;47.916;8.074;2023-05-07T05:47:22;15.00;99.90
5560;DHT22;2803;47.916;8.074;2023-05-07T05:49:49;15.00;99.90
5560;DHT22;2803;47.916;8.074;2023-05-07T05:52:15;15.20;99.90
5560;DHT22;2803;47.916;8.074;2023-05-07T05:54:42;15.30;99.90
5560;DHT22;2803;47.916;8.074;2023-05-07T05:57:11;15.50;99.90
5560;DHT22;2803;47.916;8.074;2023-05-07T05:59:37;15.20;99.90
5560;DHT22;2803;47.916;8.074;2023-05-07T06:02:04;15.60;99.90
5560;DHT22;2803;47.916;8.074;2023-05-07T06:04:31;15.80;99.90
5560;DHT22;2803;47.916;8.074;2023-05-07T06:06:57;16.00;99.90
5560;DHT22;2803;47.916;8.074;2023-05-07T06:09:24;16.10;99.90
5560;DHT22;2803;47.916;8.074;2023-05-07T06:11:51;16.10;99.90
5560;DHT22;2803;47.916;8.074;2023-05-07T06:14:19;16.40;99.90
5560;DHT22;2803;47.916;8.074;2023-05-07T06:16:45;16.50;99.90
5560;DHT22;2803;47.916;8.074;2023-05-07T06:19:12;16.60;99.90
5560;DHT22;2803;47.916;8.074;2023-05-07T06:21:39;16.70;99.90
5560;DHT22;2803;47.916;8.074;2023-05-07T06:24:06;16.70;99.90
5560;DHT22;2803;47.916;8.074;2023-05-07T06:26:33;16.80;99.90
5560;DHT22;2803;47.916;8.074;2023-05-07T06:28:59;16.90;99.90
5560;DHT22;2803;47.916;8.074;2023-05-07T06:31:29;16.90;99.90
5560;DHT22;2803;47.916;8.074;2023-05-07T06:33:57;17.10;99.90
5560;DHT22;2803;47.916;8.074;2023-05-07T06:36:24;17.30;99.90
5560;DHT22;2803;47.916;8.074;2023-05-07T06:38:51;17.50;99.90
5560;DHT22;2803;47.916;8.074;2023-05-07T06:41:18;17.70;99.90
5560;DHT22;2803;47.916;8.074;2023-05-07T06:43:45;17.90;99.90
5560;DHT22;2803;47.916;8.074;2023-05-07T06:46:12;18.00;99.90
5560;DHT22;2803;47.916;8.074;2023-05-07T06:48:40;18.20;99.90
5560;DHT22;2803;47.916;8.074;2023-05-07T06:51:07;18.40;99.90
5560;DHT22;2803;47.916;8.074;2023-05-07T06:53:35;18.60;99.90
5560;DHT22;2803;47.916;8.074;2023-05-07T06:56:02;18.60;99.90
5560;DHT22;2803;47.916;8.074;2023-05-07T06:58:28;18.70;99.90
5560;DHT22;2803;47.916;8.074;2023-05-07T07:00:55;18.90;99.90
5560;DHT22;2803;47.916;8.074;2023-05-07T07:03:22;19.10;99.90
5560;DHT22;2803;47.916;8.074;2023-05-07T07:05:55;19.20;99.90
5560;DHT22;2803;47.916;8.074;2023-05-07T07:08:22;19.30;99.90
5560;DHT22;2803;47.916;8.074;2023-05-07T07:10:48;19.60;99.90
5560;DHT22;2803;47.916;8.074;2023-05-07T07:13:15;19.60;99.90
5560;DHT22;2803;47.916;8.074;2023-05-07T07:15:42;19.50;99.90
5560;DHT22;2803;47.916;8.074;2023-05-07T07:18:08;19.70;99.90
5560;DHT22;2803;47.916;8.074;2023-05-07T07:20:36;19.90;99.90
5560;DHT22;2803;47.916;8.074;2023-05-07T07:23:04;19.80;99.90
5560;DHT22;2803;47.916;8.074;2023-05-07T07:25:31;19.50;99.90
5560;DHT22;2803;47.916;8.074;2023-05-07T07:27:57;19.20;99.90
5560;DHT22;2803;47.916;8.074;2023-05-07T07:30:24;19.00;99.90
5560;DHT22;2803;47.916;8.074;2023-05-07T07:32:51;19.30;99.90
5560;DHT22;2803;47.916;8.074;2023-05-07T07:35:18;19.30;99.90
5560;DHT22;2803;47.916;8.074;2023-05-07T07:37:44;19.30;99.90
5560;DHT22;2803;47.916;8.074;2023-05-07T07:40:13;19.60;99.90
5560;DHT22;2803;47.916;8.074;2023-05-07T07:42:40;19.80;99.90
5560;DHT22;2803;47.916;8.074;2023-05-07T07:45:07;20.00;99.90
5560;DHT22;2803;47.916;8.074;2023-05-07T07:47:34;19.70;99.90
5560;DHT22;2803;47.916;8.074;2023-05-07T07:50:01;19.40;99.90
5560;DHT22;2803;47.916;8.074;2023-05-07T07:52:27;19.40;99.90
5560;DHT22;2803;47.916;8.074;2023-05-07T07:54:54;19.60;99.90
5560;DHT22;2803;47.916;8.074;2023-05-07T07:57:22;19.90;99.90
5560;DHT22;2803;47.916;8.074;2023-05-07T07:59:49;19.70;99.90
5560;DHT22;2803;47.916;8.074;2023-05-07T08:02:15;19.80;99.90
5560;DHT22;2803;47.916;8.074;2023-05-07T08:04:42;19.80;99.90
5560;DHT22;2803;47.916;8.074;2023-05-07T08:07:09;20.10;99.90
5560;DHT22;2803;47.916;8.074;2023-05-07T08:09:37;20.40;99.90
5560;DHT22;2803;47.916;8.074;2023-05-07T08:12:04;20.60;99.90
5560;DHT22;2803;47.916;8.074;2023-05-07T08:14:32;20.50;99.90
5560;DHT22;2803;47.916;8.074;2023-05-07T08:16:59;20.40;99.90
5560;DHT22;2803;47.916;8.074;2023-05-07T08:19:25;20.50;99.90
5560;DHT22;2803;47.916;8.074;2023-05-07T08:21:52;20.80;99.90
5560;DHT22;2803;47.916;8.074;2023-05-07T08:24:19;20.90;99.90
5560;DHT22;2803;47.916;8.074;2023-05-07T08:26:46;21.10;99.90
5560;DHT22;2803;47.916;8.074;2023-05-07T08:29:12;21.10;99.90
5560;DHT22;2803;47.916;8.074;2023-05-07T08:31:40;21.10;99.90
5560;DHT22;2803;47.916;8.074;2023-05-07T08:34:07;21.30;99.90
5560;DHT22;2803;47.916;8.074;2023-05-07T08:36:34;21.50;99.90
5560;DHT22;2803;47.916;8.074;2023-05-07T08:39:00;21.50;99.90
5560;DHT22;2803;47.916;8.074;2023-05-07T08:41:27;21.90;99.90
5560;DHT22;2803;47.916;8.074;2023-05-07T08:43:57;21.70;99.90
5560;DHT22;2803;47.916;8.074;2023-05-07T08:46:25;21.70;99.90
5560;DHT22;2803;47.916;8.074;2023-05-07T08:48:53;21.40;99.90
5560;DHT22;2803;47.916;8.074;2023-05-07T08:51:21;21.50;99.90
5560;DHT22;2803;47.916;8.074;2023-05-07T08:53:49;21.30;99.90
5560;DHT22;2803;47.916;8.074;2023-05-07T08:56:18;21.70;99.90
5560;DHT22;2803;47.916;8.074;2023-05-07T08:58:48;21.90;99.90
5560;DHT22;2803;47.916;8.074;2023-05-07T09:01:18;21.40;99.90
5560;DHT22;2803;47.916;8.074;2023-05-07T09:03:46;21.60;99.90
5560;DHT22;2803;47.916;8.074;2023-05-07T09:06:14;21.60;99.90
5560;DHT22;2803;47.916;8.074;2023-05-07T09:08:49;21.60;99.90
5560;DHT22;2803;47.916;8.074;2023-05-07T09:11:19;21.70;99.90
5560;DHT22;2803;47.916;8.074;2023-05-07T09:13:46;21.70;99.90
5560;DHT22;2803;47.916;8.074;2023-05-07T09:16:13;21.40;99.90
5560;DHT22;2803;47.916;8.074;2023-05-07T09:18:41;21.10;99.90
5560;DHT22;2803;47.916;8.074;2023-05-07T09:21:10;21.10;99.90
5560;DHT22;2803;47.916;8.074;2023-05-07T09:23:38;21.20;99.90
5560;DHT22;2803;47.916;8.074;2023-05-07T09:26:07;21.20;99.90
5560;DHT22;2803;47.916;8.074;2023-05-07T09:28:38;21.40;99.90
5560;DHT22;2803;47.916;8.074;2023-05-07T09:31:06;21.20;99.90
5560;DHT22;2803;47.916;8.074;2023-05-07T09:33:32;21.20;99.90
5560;DHT22;2803;47.916;8.074;2023-05-07T09:36:02;21.00;99.90
5560;DHT22;2803;47.916;8.074;2023-05-07T09:38:29;20.90;99.90
5560;DHT22;2803;47.916;8.074;2023-05-07T09:41:03;20.80;99.90
5560;DHT22;2803;47.916;8.074;2023-05-07T09:43:35;20.70;99.90
5560;DHT22;2803;47.916;8.074;2023-05-07T09:46:03;20.50;99.90
5560;DHT22;2803;47.916;8.074;2023-05-07T09:48:32;20.20;99.90
5560;DHT22;2803;47.916;8.074;2023-05-07T09:51:02;19.80;99.90
5560;DHT22;2803;47.916;8.074;2023-05-07T09:53:33;20.10;99.90
5560;DHT22;2803;47.916;8.074;2023-05-07T09:56:02;20.10;99.90
5560;DHT22;2803;47.916;8.074;2023-05-07T09:58:29;20.10;99.90
5560;DHT22;2803;47.916;8.074;2023-05-07T10:00:57;20.00;99.90
5560;DHT22;2803;47.916;8.074;2023-05-07T10:03:24;19.70;99.90
5560;DHT22;2803;47.916;8.074;2023-05-07T10:05:54;19.50;99.90
5560;DHT22;2803;47.916;8.074;2023-05-07T10:08:21;19.60;99.90
5560;DHT22;2803;47.916;8.074;2023-05-07T10:10:49;19.60;99.90
5560;DHT22;2803;47.916;8.074;2023-05-07T10:13:17;19.10;99.90
5560;DHT22;2803;47.916;8.074;2023-05-07T10:15:45;19.30;99.90
5560;DHT22;2803;47.916;8.074;2023-05-07T10:18:13;19.70;99.90
5560;DHT22;2803;47.916;8.074;2023-05-07T10:20:41;19.70;99.90
5560;DHT22;2803;47.916;8.074;2023-05-07T10:23:13;19.50;99.90
5560;DHT22;2803;47.916;8.074;2023-05-07T10:25:41;19.30;99.90
5560;DHT22;2803;47.916;8.074;2023-05-07T10:28:10;19.60;99.90
5560;DHT22;2803;47.916;8.074;2023-05-07T10:30:46;19.90;99.90
5560;DHT22;2803;47.916;8.074;2023-05-07T10:33:17;20.20;99.90
5560;DHT22;2803;47.916;8.074;2023-05-07T10:35:47;20.40;99.90
5560;DHT22;2803;47.916;8.074;2023-05-07T10:38:14;20.50;99.90
5560;DHT22;2803;47.916;8.074;2023-05-07T10:40:40;20.60;99.90
5560;DHT22;2803;47.916;8.074;2023-05-07T10:43:07;20.70;99.90
5560;DHT22;2803;47.916;8.074;2023-05-07T10:45:34;20.50;99.90
5560;DHT22;2803;47.916;8.074;2023-05-07T10:48:10;19.90;99.90
5560;DHT22;2803;47.916;8.074;2023-05-07T10:50:38;19.70;99.90
5560;DHT22;2803;47.916;8.074;2023-05-07T10:53:20;19.40;99.90
5560;DHT22;2803;47.916;8.074;2023-05-07T10:55:50;19.60;99.90
5560;DHT22;2803;47.916;8.074;2023-05-07T10:58:22;19.60;99.90
5560;DHT22;2803;47.916;8.074;2023-05-07T11:00:50;20.00;99.90
5560;DHT22;2803;47.916;8.074;2023-05-07T11:03:19;20.20;99.90
5560;DHT22;2803;47.916;8.074;2023-05-07T11:05:47;19.70;99.90
5560;DHT22;2803;47.916;8.074;2023-05-07T11:08:52;19.80;99.90
5560;DHT22;2803;47.916;8.074;2023-05-07T11:11:19;20.70;99.90
5560;DHT22;2803;47.916;8.074;2023-05-07T11:13:47;21.70;99.90
5560;DHT22;2803;47.916;8.074;2023-05-07T11:16:17;22.30;99.90
5560;DHT22;2803;47.916;8.074;2023-05-07T11:18:49;22.00;99.90
5560;DHT22;2803;47.916;8.074;2023-05-07T11:21:32;22.10;99.90
5560;DHT22;2803;47.916;8.074;2023-05-07T11:24:00;22.20;99.90
5560;DHT22;2803;47.916;8.074;2023-05-07T11:26:29;22.40;99.90
5560;DHT22;2803;47.916;8.074;2023-05-07T11:28:56;22.50;99.90
5560;DHT22;2803;47.916;8.074;2023-05-07T11:31:27;22.60;99.90
5560;DHT22;2803;47.916;8.074;2023-05-07T11:33:57;22.90;99.90
5560;DHT22;2803;47.916;8.074;2023-05-07T11:36:24;22.60;99.90
5560;DHT22;2803;47.916;8.074;2023-05-07T11:38:51;22.40;99.90
5560;DHT22;2803;47.916;8.074;2023-05-07T11:41:18;21.80;99.90
5560;DHT22;2803;47.916;8.074;2023-05-07T11:43:54;21.40;99.90
5560;DHT22;2803;47.916;8.074;2023-05-07T11:46:21;21.70;99.90
5560;DHT22;2803;47.916;8.074;2023-05-07T11:48:48;22.00;99.90
5560;DHT22;2803;47.916;8.074;2023-05-07T11:51:20;21.70;99.90
5560;DHT22;2803;47.916;8.074;2023-05-07T11:53:47;21.40;99.90
5560;DHT22;2803;47.916;8.074;2023-05-07T11:56:16;21.70;99.90
5560;DHT22;2803;47.916;8.074;2023-05-07T11:58:44;21.50;99.90
5560;DHT22;2803;47.916;8.074;2023-05-07T12:01:12;21.50;99.90
5560;DHT22;2803;47.916;8.074;2023-05-07T12:03:41;21.40;99.90
5560;DHT22;2803;47.916;8.074;2023-05-07T12:06:09;21.30;99.90
5560;DHT22;2803;47.916;8.074;2023-05-07T12:08:38;21.20;99.90
5560;DHT22;2803;47.916;8.074;2023-05-07T12:11:07;21.40;99.90
5560;DHT22;2803;47.916;8.074;2023-05-07T12:13:35;21.60;99.90
5560;DHT22;2803;47.916;8.074;2023-05-07T12:16:02;21.90;99.90
5560;DHT22;2803;47.916;8.074;2023-05-07T12:18:29;21.60;99.90
5560;DHT22;2803;47.916;8.074;2023-05-07T12:20:56;21.60;99.90
5560;DHT22;2803;47.916;8.074;2023-05-07T12:23:23;21.50;99.90
5560;DHT22;2803;47.916;8.074;2023-05-07T12:25:51;21.10;99.90
5560;DHT22;2803;47.916;8.074;2023-05-07T12:28:18;20.80;99.90
5560;DHT22;2803;47.916;8.074;2023-05-07T12:30:47;20.90;99.90
5560;DHT22;2803;47.916;8.074;2023-05-07T12:33:16;21.50;99.90
5560;DHT22;2803;47.916;8.074;2023-05-07T12:35:43;22.10;99.90
5560;DHT22;2803;47.916;8.074;2023-05-07T12:38:12;22.40;99.90
5560;DHT22;2803;47.916;8.074;2023-05-07T12:40:40;22.00;99.90
5560;DHT22;2803;47.916;8.074;2023-05-07T12:43:15;21.40;99.90
5560;DHT22;2803;47.916;8.074;2023-05-07T12:45:41;20.80;99.90
5560;DHT22;2803;47.916;8.074;2023-05-07T12:48:09;20.70;99.90
5560;DHT22;2803;47.916;8.074;2023-05-07T12:50:36;20.40;99.90
5560;DHT22;2803;47.916;8.074;2023-05-07T12:53:03;20.20;99.90
5560;DHT22;2803;47.916;8.074;2023-05-07T12:55:32;20.10;99.90
5560;DHT22;2803;47.916;8.074;2023-05-07T12:58:01;19.70;99.90
5560;DHT22;2803;47.916;8.074;2023-05-07T13:00:37;20.00;99.90
5560;DHT22;2803;47.916;8.074;2023-05-07T13:03:04;19.80;99.90
5560;DHT22;2803;47.916;8.074;2023-05-07T13:05:31;19.70;99.90
5560;DHT22;2803;47.916;8.074;2023-05-07T13:07:58;19.70;99.90
5560;DHT22;2803;47.916;8.074;2023-05-07T13:10:25;19.60;99.90
5560;DHT22;2803;47.916;8.074;2023-05-07T13:12:53;19.40;99.90
5560;DHT22;2803;47.916;8.074;2023-05-07T13:15:21;19.60;99.90
5560;DHT22;2803;47.916;8.074;2023-05-07T13:17:49;19.70;99.90
5560;DHT22;2803;47.916;8.074;2023-05-07T13:20:16;19.40;99.90
5560;DHT22;2803;47.916;8.074;2023-05-07T13:22:43;19.20;99.90
5560;DHT22;2803;47.916;8.074;2023-05-07T13:25:09;19.10;99.90
5560;DHT22;2803;47.916;8.074;2023-05-07T13:27:36;18.80;99.90
5560;DHT22;2803;47.916;8.074;2023-05-07T13:30:03;18.70;99.90
5560;DHT22;2803;47.916;8.074;2023-05-07T13:32:30;18.10;99.90
5560;DHT22;2803;47.916;8.074;2023-05-07T13:34:59;17.60;99.90
5560;DHT22;2803;47.916;8.074;2023-05-07T13:37:25;17.20;99.90
5560;DHT22;2803;47.916;8.074;2023-05-07T13:39:52;17.40;99.90
5560;DHT22;2803;47.916;8.074;2023-05-07T13:42:18;17.70;99.90
5560;DHT22;2803;47.916;8.074;2023-05-07T13:44:45;17.80;99.90
5560;DHT22;2803;47.916;8.074;2023-05-07T13:47:12;17.80;99.90
5560;DHT22;2803;47.916;8.074;2023-05-07T13:49:38;17.60;99.90
5560;DHT22;2803;47.916;8.074;2023-05-07T13:52:06;17.80;99.90
5560;DHT22;2803;47.916;8.074;2023-05-07T13:54:33;18.00;99.90
5560;DHT22;2803;47.916;8.074;2023-05-07T13:56:59;18.00;99.90
5560;DHT22;2803;47.916;8.074;2023-05-07T13:59:27;17.80;99.90
5560;DHT22;2803;47.916;8.074;2023-05-07T14:01:53;18.00;99.90
5560;DHT22;2803;47.916;8.074;2023-05-07T14:04:20;17.90;99.90
5560;DHT22;2803;47.916;8.074;2023-05-07T14:06:47;18.00;99.90
5560;DHT22;2803;47.916;8.074;2023-05-07T14:09:15;18.20;99.90
5560;DHT22;2803;47.916;8.074;2023-05-07T14:11:41;18.30;99.90
5560;DHT22;2803;47.916;8.074;2023-05-07T14:14:08;18.30;99.90
5560;DHT22;2803;47.916;8.074;2023-05-07T14:16:36;18.50;99.90
5560;DHT22;2803;47.916;8.074;2023-05-07T14:19:03;18.70;99.90
5560;DHT22;2803;47.916;8.074;2023-05-07T14:21:29;18.90;99.90
5560;DHT22;2803;47.916;8.074;2023-05-07T14:23:56;18.90;99.90
5560;DHT22;2803;47.916;8.074;2023-05-07T14:26:24;18.90;99.90
5560;DHT22;2803;47.916;8.074;2023-05-07T14:28:52;18.70;99.90
5560;DHT22;2803;47.916;8.074;2023-05-07T14:31:20;18.40;99.90
5560;DHT22;2803;47.916;8.074;2023-05-07T14:33:46;18.80;99.90
5560;DHT22;2803;47.916;8.074;2023-05-07T14:36:15;19.10;99.90
5560;DHT22;2803;47.916;8.074;2023-05-07T14:38:41;19.10;99.90
5560;DHT22;2803;47.916;8.074;2023-05-07T14:41:08;19.20;99.90
5560;DHT22;2803;47.916;8.074;2023-05-07T14:43:36;19.70;99.90
5560;DHT22;2803;47.916;8.074;2023-05-07T14:46:02;20.20;99.90
5560;DHT22;2803;47.916;8.074;2023-05-07T14:48:29;20.40;99.90
5560;DHT22;2803;47.916;8.074;2023-05-07T14:50:56;20.60;99.90
5560;DHT22;2803;47.916;8.074;2023-05-07T14:53:23;21.00;99.90
5560;DHT22;2803;47.916;8.074;2023-05-07T14:55:49;20.90;99.90
5560;DHT22;2803;47.916;8.074;2023-05-07T14:58:16;20.80;99.90
5560;DHT22;2803;47.916;8.074;2023-05-07T15:00:44;21.20;99.90
5560;DHT22;2803;47.916;8.074;2023-05-07T15:03:10;21.40;99.90
5560;DHT22;2803;47.916;8.074;2023-05-07T15:05:38;21.60;99.90
5560;DHT22;2803;47.916;8.074;2023-05-07T15:08:05;21.90;99.90
5560;DHT22;2803;47.916;8.074;2023-05-07T15:10:35;22.10;99.90
5560;DHT22;2803;47.916;8.074;2023-05-07T15:13:06;22.10;99.90
5560;DHT22;2803;47.916;8.074;2023-05-07T15:15:33;22.00;99.90
5560;DHT22;2803;47.916;8.074;2023-05-07T15:18:00;21.80;99.90
5560;DHT22;2803;47.916;8.074;2023-05-07T15:20:27;21.70;99.90
5560;DHT22;2803;47.916;8.074;2023-05-07T15:22:54;21.60;99.90
5560;DHT22;2803;47.916;8.074;2023-05-07T15:25:21;21.40;99.90
5560;DHT22;2803;47.916;8.074;2023-05-07T15:27:47;21.00;99.90
5560;DHT22;2803;47.916;8.074;2023-05-07T15:30:14;20.50;99.90
5560;DHT22;2803;47.916;8.074;2023-05-07T15:32:41;20.10;99.90
5560;DHT22;2803;47.916;8.074;2023-05-07T15:35:09;20.00;99.90
5560;DHT22;2803;47.916;8.074;2023-05-07T15:37:36;19.50;99.90
5560;DHT22;2803;47.916;8.074;2023-05-07T15:40:03;19.90;99.90
5560;DHT22;2803;47.916;8.074;2023-05-07T15:42:32;19.90;99.90
5560;DHT22;2803;47.916;8.074;2023-05-07T15:44:59;19.80;99.90
5560;DHT22;2803;47.916;8.074;2023-05-07T15:47:26;19.80;99.90
5560;DHT22;2803;47.916;8.074;2023-05-07T15:49:53;19.70;99.90
5560;DHT22;2803;47.916;8.074;2023-05-07T15:52:22;19.80;99.90
5560;DHT22;2803;47.916;8.074;2023-05-07T15:54:48;19.90;99.90
5560;DHT22;2803;47.916;8.074;2023-05-07T15:57:15;19.90;99.90
5560;DHT22;2803;47.916;8.074;2023-05-07T15:59:41;19.70;99.90
5560;DHT22;2803;47.916;8.074;2023-05-07T16:02:08;20.00;99.90
5560;DHT22;2803;47.916;8.074;2023-05-07T16:04:34;19.80;99.90